• Join FlightAware (Why Join?)
  • Login
  • US Flag 
08:50AM EDT


 

Airport Tracker/Info


-or-


 

Live Flight TrackerFlight Track Log ✈ FLG3862 ✈ 28-Apr-2013 ✈ KBTV - KDTW

Flight Track Log - Related Links

Times and Time Zones

All times are in EDT time to prevent confusion due to time zone crossing. See the FLG3862 flight status page for this flight to view local times or setup timezone preferences in your user account.

Time Position Orientation Groundspeed Altitude Reporting Facility
EDT Latitude Longitude Course Direction KTS MPH feet Rate Location/Type
12:36PM 44.3744 -73.6643 253° West  Level FlightAware Approximate
12:36PM 44.3411 -73.3369 240° Southwest 263 303 9,100  Level Boston Center
12:37PM 44.3534 -73.7936 259° West  Level FlightAware Approximate
12:37PM 44.3300 -73.4414 262° West 275 316 10,900  Level Boston Center
12:38PM 44.3347 -73.9238 259° West  Level FlightAware Approximate
12:38PM 44.3142 -73.5628 260° West 317 365 12,200  Level Boston Center
12:39PM 44.3115 -74.0524 256° West  Level FlightAware Approximate
12:39PM 44.2939 -73.7017 259° West 354 407 14,300  Level Boston Center
12:40PM 44.2878 -74.1808 256° West  Level FlightAware Approximate
12:40PM 44.2736 -73.8492 259° West 359 413 16,500  Level Boston Center
12:41PM 44.2553 -73.9822 259° West 359 413 18,300 1,920 Climbing Boston Center
12:42PM 44.2389 -74.1119 260° West 354 407 20,400 1,980 Climbing Boston Center
12:43PM 44.2225 -74.2303 259° West 354 407 22,300 1,740 Climbing Boston Center
12:44PM 44.2058 -74.3517 259° West 344 396 23,900 1,440 Climbing Boston Center
12:45PM 44.1869 -74.4842 259° West 339 390 25,200 1,200 Climbing Boston Center
12:46PM 44.1678 -74.6136 258° West 339 390 26,400 1,140 Climbing Boston Center
12:47PM 44.1508 -74.7433 260° West 345 397 27,500 780 Climbing Boston Center
12:48PM 44.1314 -74.8786 259° West 350 403 28,000 240 Climbing Boston Center
12:49PM 44.1114 -75.0222 259° West 369 425 28,000  Level Boston Center
12:50PM 44.0872 -75.1744 258° West 384 442 28,000  Level Boston Center
12:51PM 44.0644 -75.3325 259° West 408 470 28,000  Level Boston Center
12:52PM 44.0417 -75.4931 259° West 422 486 28,000  Level Boston Center
12:53PM 44.0183 -75.6564 259° West 428 493 28,000  Level Boston Center
12:54PM 43.9928 -75.8256 258° West 434 499 28,000  Level Boston Center
12:55PM 43.9722 -75.9542 258° West 434 499 28,000  Level Boston Center
12:56PM 43.9536 -76.1433 262° West 428 493 28,000  Level Boston Center
12:57PM 43.9400 -76.3011 263° West 422 486 28,000  Level Boston Center
12:58PM 43.9267 -76.4475 263° West 422 486 28,000  Level Boston Center
12:59PM 43.9114 -76.6397 264° West 422 486 28,000  Level Boston Center
12:59PM 43.8833 -76.6500 195° South 420 483 28,000  Level Toronto Center
01:00PM 43.8833 -76.8167 270° West 420 483 28,000  Level Toronto Center
01:01PM 43.8667 -76.9667 261° West 420 483 28,000  Level Toronto Center
01:02PM 43.8333 -77.1333 255° West 420 483 28,000  Level Toronto Center
01:03PM 43.8167 -77.3000 262° West 420 483 28,000  Level Toronto Center
01:04PM 43.8167 -77.4667 270° West 430 495 28,000  Level Toronto Center
01:05PM 43.8000 -77.6167 261° West 430 495 28,000  Level Toronto Center
01:06PM 43.7833 -77.7833 262° West 430 495 28,000  Level Toronto Center
01:07PM 43.7667 -77.9500 262° West 430 495 28,000  Level Toronto Center
01:08PM 43.7333 -78.1167 255° West 420 483 28,000  Level Toronto Center
01:09PM 43.7167 -78.2667 261° West 420 483 28,000  Level Toronto Center
01:10PM 43.7000 -78.4333 262° West 420 483 28,000  Level Toronto Center
01:11PM 43.7000 -78.6000 270° West 420 483 28,000  Level Toronto Center
01:12PM 43.6667 -78.7333 251° West 420 483 28,000  Level Toronto Center
01:13PM 43.6000 -78.9000 241° Southwest 430 495 28,000  Level Toronto Center
01:14PM 43.5500 -79.0167 239° Southwest 430 495 28,000  Level Toronto Center
01:15PM 43.4833 -79.1500 235° Southwest 430 495 28,000  Level Toronto Center
01:16PM 43.4167 -79.3167 241° Southwest 420 483 28,000  Level Toronto Center
01:17PM 43.3500 -79.4333 232° Southwest 430 495 28,000  Level Toronto Center
01:18PM 43.3000 -79.5667 243° Southwest 430 495 28,000  Level Toronto Center
01:19PM 43.2333 -79.7167 239° Southwest 430 495 28,000 -300 Level Toronto Center
01:20PM 43.1667 -79.8667 239° Southwest 430 495 27,500 -780 Descending Toronto Center
01:21PM 43.1000 -80.0000 236° Southwest 420 483 26,500 -1,020 Descending Toronto Center
01:22PM 43.0500 -80.1333 243° Southwest 420 483 25,500 -1,020 Descending Toronto Center
01:23PM 42.9833 -80.2500 232° Southwest 410 472 24,500 -1,020 Descending Toronto Center
01:24PM 42.9167 -80.4000 239° Southwest 410 472 23,500 -780 Descending Toronto Center
01:25PM 42.8667 -80.5167 240° Southwest 410 472 23,000 -360 Descending Toronto Center
01:26PM 42.8394 -80.6058 247° West 403 464 23,000  Level Cleveland Center
01:27PM 42.7811 -80.7303 237° Southwest 396 456 23,000  Level Cleveland Center
01:28PM 42.7244 -80.8572 239° Southwest 396 456 23,000  Level Cleveland Center
01:29PM 42.6950 -81.0042 255° West 391 450 23,000  Level Cleveland Center
01:30PM 42.6778 -81.1394 260° West 396 456 23,000  Level Cleveland Center
01:31PM 42.6600 -81.3003 262° West 421 484 23,000  Level Cleveland Center
01:32PM 42.6425 -81.4553 261° West 434 499 23,000  Level Cleveland Center
01:33PM 42.6222 -81.6158 260° West 434 499 23,000  Level Cleveland Center
01:34PM 42.6042 -81.7736 261° West 434 499 23,000 -1,200 Level Cleveland Center
01:35PM 42.5836 -81.9339 260° West 434 499 20,700 -2,460 Descending Cleveland Center
01:36PM 42.5628 -82.0914 260° West 429 494 18,100 -2,700 Descending Cleveland Center
01:36PM 42.5483 -82.2292 262° West 416 479 15,800 -2,760 Descending Cleveland Center
01:37PM 42.5342 -82.3583 262° West 398 458 13,600 -2,460 Descending Cleveland Center
01:38PM 42.5272 -82.3892 253° West 417 480 12,900 -1,800 Descending Cleveland Center
01:38PM 42.5175 -82.4847 262° West 376 433 12,000 -900 Descending Cleveland Center
01:39PM 42.5083 -82.5239 252° West 394 453 12,000 -180 Level Cleveland Center
01:39PM 42.4883 -82.6019 251° West 279 321 11,800 -540 Descending Cleveland Center
01:40PM 42.4797 -82.6242 242° Southwest 328 377 11,500 -1,020 Descending Cleveland Center
01:40PM 42.4553 -82.6967 245° Southwest 280 322 10,800 -1,020 Descending Cleveland Center
01:41PM 42.4467 -82.7189 242° Southwest 304 350 10,500 -1,140 Descending Cleveland Center
01:41PM 42.4225 -82.7883 245° Southwest 254 292 9,700 -1,200 Descending Cleveland Center
01:42PM 42.4117 -82.8019 223° Southwest 277 319 9,300 -1,620 Descending Cleveland Center
01:42PM 42.3997 -82.8747 257° West 262 302 8,100 -1,620 Descending Cleveland Center
01:43PM 42.3975 -82.8886 258° West 256 295 7,700 -1,800 Descending Cleveland Center
01:43PM 42.4044 -82.9622 277° West 258 297 6,500 -1,620 Descending Cleveland Center
01:44PM 42.4039 -82.9875 268° West 251 289 6,100 -1,020 Descending Cleveland Center
01:44PM 42.4125 -83.0636 279° West 276 318 5,500 -840 Descending Cleveland Center
01:45PM 42.4164 -83.0864 283° West 261 300 5,300 -480 Descending Cleveland Center
01:45PM 42.4525 -83.1497 308° West 212 244 5,000 -420 Descending Cleveland Center
01:46PM 42.4544 -83.1553 295° West 245 282 4,900  Descending Cleveland Center
01:46PM 42.4369 -83.1942 239° Southwest 169 194 5,000 -240 Climbing Cleveland Center
01:48PM 42.3864 -83.2144 197° South 181 208 4,500 -660 Descending Cleveland Center
01:48PM 42.3567 -83.2328 205° Southwest 165 190 3,800 -1,020 Descending Cleveland Center